Vremea acum in Blaj - Romania

Vrei sa afli care e starea vremii acum in Alba - Romania? Dorim sa iti furnizam starea vremii pentru Alba - Romania. Starea vremii Alba - Romania pentru astazi.

Vremea acum in Blaj

Temperatura: 21.2 °C

Este:
Se simte ca: 21.2 °C
Innorat: 0 %
Precipitatii: 63 %
Presiune atmosferica: 1014 hPa
Umiditate: 53%
Vizibilitate: 10 km
Vantul bate din S cu 5 km/h

Evolutia vremii in Blaj pe ore

Ora: 13:00
Thundery outbreaks in nearby
Temperatura: 23.2°C
Sansa de precipitatii: 63%
Ora Descriere Temp Se simte Precipitatii Umiditate Vant
00:00Senin14°14.7°0%64%S 3.6 KM/H
01:00Senin12.5°12.6°0%69%SSW 5 KM/H
02:00Senin11.6°11.9°0%72%S 4 KM/H
03:00Senin11.3°11.7°0%73%S 3.6 KM/H
04:00Senin11.2°11.4°0%74%SSE 4 KM/H
05:00Senin10.5°10.7°0%77%SE 4 KM/H
06:00Senin10.1°10.1°0%80%SE 2.9 KM/H
07:00Senin11.3°11.8°0%79%SE 3.2 KM/H
08:00Senin14.5°15.3°0%74%SE 3.2 KM/H
09:00Senin16.8°16.8°0%67%SSE 3.6 KM/H
10:0018.8°18.8°0%62%SSE 5 KM/H
11:0021.2°20.7°0%53%S 5 KM/H
12:00Patchy rain nearby22.5°24.6°100%52%SSW 4 KM/H
13:00Thundery outbreaks in nearby23.2°24.8°63%49%SW 7.6 KM/H
14:00Burniță ușoară22.1°24.6°100%55%SW 14.8 KM/H
15:00Burniță ușoară18.3°18.3°100%74%SW 14.4 KM/H
16:00Burniță ușoară18.4°18.4°100%74%WNW 1.8 KM/H
17:00Ploi usoare19.7°19.7°100%65%WNW 5 KM/H
18:00Patchy rain nearby19.5°19.5°100%69%W 5.4 KM/H
19:00Ploi usoare17.1°17.1°100%79%W 8.6 KM/H
20:00Ploi usoare15.1°15.1°100%87%NW 9.4 KM/H
21:00Patchy rain nearby14.2°14.1°100%91%NNW 7.6 KM/H
22:00Patchy rain nearby14.2°14.1°63%91%NNE 6.8 KM/H
23:00Innorat13.5°13.5°0%92%NW 1.8 KM/H




tutorials